Time;durP1;ratioP1;P1;durP2;ratioP2;P2;SDS_P1;SDS_P2;PMS_P1;PMS_P2;Temp;Humidity;BMP_temperature;BMP_pressure;BME280_temperature;BME280_humidity;BME280_pressure;Samples;Min_cycle;Max_cycle;Signal;HPM_P1;HPM_P2
2022/02/15 11:59:23;;;;;;;9.83;6.35;;;7.70;71.10;;;;;;1958997;73;25503;-47
2022/02/15 12:02:03;;;;;;;12.45;6.92;;;7.70;72.70;;;;;;1918554;73;21105;-47
2022/02/15 12:04:33;;;;;;;10.05;6.55;;;7.70;72.20;;;;;;1917373;74;21059;-49
2022/02/15 12:07:03;;;;;;;8.75;6.05;;;7.80;72.60;;;;;;1918322;75;21027;-48
2022/02/15 12:09:38;;;;;;;12.15;7.12;;;7.80;73.20;;;;;;1918315;75;21085;-48
2022/02/15 12:12:17;;;;;;;10.60;6.97;;;7.90;73.30;;;;;;1918088;74;21607;-48
2022/02/15 12:14:44;;;;;;;10.38;6.58;;;7.90;73.10;;;;;;1918366;74;21051;-48
2022/02/15 12:17:16;;;;;;;15.00;7.90;;;7.90;73.30;;;;;;1918384;75;21003;-48
2022/02/15 12:19:46;;;;;;;17.70;6.58;;;8.00;73.30;;;;;;1917228;75;21023;-49
2022/02/15 12:22:20;;;;;;;10.80;6.92;;;8.00;72.80;;;;;;1918416;74;21069;-48
2022/02/15 12:25:07;;;;;;;11.25;6.75;;;8.00;73.40;;;;;;1915899;74;21075;-48
2022/02/15 12:27:41;;;;;;;10.80;6.58;;;8.00;72.90;;;;;;1918468;74;21019;-48
2022/02/15 12:30:13;;;;;;;12.78;6.72;;;8.10;72.70;;;;;;1918410;75;21077;-48
2022/02/15 12:32:47;;;;;;;9.18;6.12;;;8.10;72.10;;;;;;1918364;75;21019;-48
2022/02/15 12:35:27;;;;;;;12.58;6.00;;;8.10;71.80;;;;;;1918694;73;21031;-48
2022/02/15 12:38:00;;;;;;;9.48;5.75;;;8.10;71.70;;;;;;1918507;75;21015;-47
2022/02/15 12:40:31;;;;;;;12.57;7.93;;;8.20;71.20;;;;;;1918604;74;21070;-47
2022/02/15 12:43:00;;;;;;;18.77;9.05;;;8.20;71.20;;;;;;1918522;75;21023;-47
2022/02/15 12:45:30;;;;;;;17.05;11.70;;;8.10;72.10;;;;;;1918399;75;21082;-48
2022/02/15 12:48:01;;;;;;;11.38;6.67;;;8.20;71.90;;;;;;1918500;75;21019;-47
2022/02/15 12:50:32;;;;;;;11.38;9.25;;;8.20;71.10;;;;;;1918415;75;21128;-47
2022/02/15 12:53:03;;;;;;;21.85;11.73;;;8.20;70.80;;;;;;1918393;75;21007;-47
2022/02/15 12:55:32;;;;;;;14.75;10.05;;;8.10;71.80;;;;;;1918504;75;21031;-47
2022/02/15 12:58:02;;;;;;;13.25;7.92;;;8.20;71.60;;;;;;1915718;75;21031;-48
2022/02/15 13:00:31;;;;;;;12.10;7.45;;;8.20;72.00;;;;;;1906086;75;21105;-48
2022/02/15 13:03:03;;;;;;;13.80;8.28;;;8.20;72.10;;;;;;1906006;75;21039;-49
2022/02/15 13:05:35;;;;;;;15.53;9.20;;;8.10;71.70;;;;;;1905903;74;21067;-48
2022/02/15 13:08:05;;;;;;;19.07;8.88;;;8.10;71.80;;;;;;1905880;75;20995;-48
2022/02/15 13:10:34;;;;;;;13.80;7.78;;;8.00;72.20;;;;;;1905527;75;21019;-48
2022/02/15 13:13:11;;;;;;;13.68;8.05;;;8.00;72.20;;;;;;1905317;75;21081;-48
2022/02/15 13:15:41;;;;;;;13.75;8.30;;;7.90;72.50;;;;;;1905248;75;21019;-49
2022/02/15 13:18:11;;;;;;;15.72;8.15;;;7.80;72.30;;;;;;1905231;75;21153;-48
2022/02/15 13:20:42;;;;;;;25.57;8.30;;;7.80;72.60;;;;;;1905317;75;21000;-48
2022/02/15 13:23:14;;;;;;;14.07;8.23;;;7.70;72.40;;;;;;1905243;75;21004;-48
2022/02/15 13:25:48;;;;;;;12.82;7.00;;;7.60;72.60;;;;;;1905489;75;21026;-48
2022/02/15 13:28:19;;;;;;;14.15;7.70;;;7.60;72.50;;;;;;1905396;74;20999;-48
2022/02/15 13:30:50;;;;;;;11.90;8.38;;;7.60;72.90;;;;;;1905218;75;21094;-48
2022/02/15 13:33:19;;;;;;;13.98;8.28;;;7.50;72.80;;;;;;1905448;75;21045;-48
2022/02/15 13:36:02;;;;;;;18.20;7.70;;;7.50;73.20;;;;;;1905377;75;21043;-47
2022/02/15 13:38:31;;;;;;;22.35;9.25;;;7.40;73.00;;;;;;1905280;75;20999;-48
2022/02/15 13:41:02;;;;;;;20.50;9.55;;;7.40;73.30;;;;;;1905403;74;21124;-47
2022/02/15 13:43:32;;;;;;;18.25;9.43;;;7.40;73.40;;;;;;1905408;75;20995;-48
2022/02/15 13:46:02;;;;;;;26.30;10.45;;;7.30;73.70;;;;;;1905387;75;21024;-48
2022/02/15 13:48:32;;;;;;;23.98;8.68;;;7.30;73.80;;;;;;1905299;75;21024;-47
2022/02/15 13:51:01;;;;;;;17.00;9.45;;;7.30;73.80;;;;;;1905305;75;21015;-47
2022/02/15 13:53:31;;;;;;;34.25;15.53;;;7.30;73.90;;;;;;1905197;75;21023;-48
2022/02/15 13:56:00;;;;;;;19.20;9.80;;;7.30;74.10;;;;;;1905260;75;21077;-48
2022/02/15 13:58:30;;;;;;;18.75;8.38;;;7.30;74.10;;;;;;1905265;75;21121;-49
2022/02/15 14:00:59;;;;;;;16.27;9.55;;;7.20;74.10;;;;;;1905310;75;21043;-48
2022/02/15 14:03:29;;;;;;;16.40;9.48;;;7.20;74.30;;;;;;1905351;75;21051;-48
2022/02/15 14:05:58;;;;;;;15.85;9.25;;;7.20;74.40;;;;;;1905425;75;21009;-48
2022/02/15 14:08:28;;;;;;;21.12;10.40;;;7.10;74.50;;;;;;1905215;75;21003;-48
2022/02/15 14:10:59;;;;;;;20.43;10.00;;;7.10;74.70;;;;;;1905333;75;21158;-48
2022/02/15 14:13:28;;;;;;;16.95;8.93;;;7.10;74.70;;;;;;1905328;75;21114;-48
2022/02/15 14:15:58;;;;;;;18.70;8.78;;;7.00;74.70;;;;;;1905361;75;21031;-47
2022/02/15 14:18:27;;;;;;;17.27;10.65;;;7.00;74.70;;;;;;1905354;75;20996;-48
2022/02/15 14:20:56;;;;;;;16.17;9.80;;;7.00;74.90;;;;;;1905318;75;21508;-48
2022/02/15 14:23:25;;;;;;;19.82;10.28;;;7.00;75.00;;;;;;1905276;75;20999;-49
2022/02/15 14:25:55;;;;;;;16.48;8.73;;;6.90;75.20;;;;;;1905414;75;21023;-48
2022/02/15 14:28:24;;;;;;;18.37;9.83;;;6.90;75.50;;;;;;1905255;74;21093;-49
2022/02/15 14:30:54;;;;;;;20.08;10.32;;;6.90;75.30;;;;;;1905111;75;21023;-47
2022/02/15 14:33:24;;;;;;;21.05;9.90;;;6.80;75.40;;;;;;1905214;74;21039;-48
2022/02/15 14:35:53;;;;;;;18.98;10.95;;;6.80;75.50;;;;;;1905250;75;21082;-48
2022/02/15 14:38:24;;;;;;;30.00;10.68;;;6.80;75.50;;;;;;1905339;75;20999;-48
2022/02/15 14:40:54;;;;;;;19.02;11.28;;;6.70;75.60;;;;;;1905416;74;21035;-48
2022/02/15 14:43:24;;;;;;;19.65;9.48;;;6.70;75.70;;;;;;1905269;74;21019;-47
2022/02/15 14:45:53;;;;;;;17.48;9.70;;;6.70;76.00;;;;;;1905480;75;21081;-48
2022/02/15 14:48:23;;;;;;;25.35;10.80;;;6.70;76.20;;;;;;1905309;74;21073;-48
2022/02/15 14:50:54;;;;;;;19.95;10.58;;;6.70;76.30;;;;;;1905411;75;21089;-48
2022/02/15 14:53:23;;;;;;;13.28;8.53;;;6.70;76.20;;;;;;1905254;75;21024;-49
2022/02/15 14:55:53;;;;;;;65.87;15.40;;;6.70;76.20;;;;;;1905371;75;20996;-48
2022/02/15 14:58:23;;;;;;;57.83;16.10;;;6.60;76.60;;;;;;1905187;75;21096;-48
2022/02/15 15:00:52;;;;;;;35.70;11.43;;;6.70;76.90;;;;;;1905350;74;21125;-48
2022/02/15 15:03:21;;;;;;;33.05;11.45;;;6.60;76.80;;;;;;1905196;75;21091;-48
2022/02/15 15:05:54;;;;;;;23.87;10.48;;;6.60;77.20;;;;;;1905250;75;21087;-48
2022/02/15 15:08:22;;;;;;;21.10;9.78;;;6.60;77.40;;;;;;1905077;75;21016;-48
2022/02/15 15:10:51;;;;;;;42.15;14.28;;;6.60;77.60;;;;;;1905281;75;21000;-48
2022/02/15 15:13:21;;;;;;;63.15;14.93;;;6.60;77.90;;;;;;1905188;75;21071;-48
2022/02/15 15:15:50;;;;;;;36.95;13.18;;;6.70;78.00;;;;;;1905350;75;21067;-48
2022/02/15 15:18:20;;;;;;;30.80;11.25;;;6.70;78.00;;;;;;1905233;75;21028;-48
2022/02/15 15:20:49;;;;;;;29.98;13.72;;;6.70;78.20;;;;;;1905210;75;21058;-48
2022/02/15 15:23:19;;;;;;;31.65;13.25;;;6.80;78.40;;;;;;1905128;75;21043;-49
2022/02/15 15:25:49;;;;;;;49.85;15.72;;;6.80;78.60;;;;;;1905342;75;21022;-49
2022/02/15 15:28:18;;;;;;;33.55;15.60;;;6.70;78.70;;;;;;1905499;74;21003;-48
2022/02/15 15:30:47;;;;;;;55.98;17.85;;;6.80;78.80;;;;;;1905287;75;21020;-48
2022/02/15 15:33:17;;;;;;;66.60;17.57;;;6.80;79.00;;;;;;1905371;75;21089;-49
2022/02/15 15:35:46;;;;;;;46.48;15.03;;;6.80;79.10;;;;;;1905180;75;21019;-48
2022/02/15 15:38:19;;;;;;;57.65;18.07;;;6.80;79.20;;;;;;1905318;75;21007;-48
2022/02/15 15:40:48;;;;;;;36.95;16.27;;;6.80;79.50;;;;;;1905393;75;21023;-48
2022/02/15 15:43:17;;;;;;;43.05;19.02;;;6.80;79.50;;;;;;1905241;74;21069;-48
2022/02/15 15:45:47;;;;;;;39.95;17.17;;;6.80;79.60;;;;;;1905234;75;21028;-48
2022/02/15 15:48:16;;;;;;;35.73;17.40;;;6.80;79.70;;;;;;1905292;74;21023;-48
2022/02/15 15:50:46;;;;;;;31.55;17.70;;;6.80;79.60;;;;;;1905142;74;20995;-49
2022/02/15 15:53:16;;;;;;;43.33;22.07;;;6.80;79.70;;;;;;1905193;75;21023;-48
2022/02/15 15:55:45;;;;;;;54.08;20.32;;;6.80;79.90;;;;;;1905234;75;21077;-48
2022/02/15 15:58:14;;;;;;;72.17;23.00;;;6.80;80.00;;;;;;1905303;75;21085;-48
2022/02/15 16:00:45;;;;;;;80.00;25.10;;;6.80;80.10;;;;;;1916370;74;21108;-48
2022/02/15 16:03:15;;;;;;;80.12;25.05;;;6.80;80.40;;;;;;1924705;74;21461;-47
2022/02/15 16:05:45;;;;;;;76.85;24.27;;;6.70;80.50;;;;;;1924914;74;21019;-48
2022/02/15 16:08:14;;;;;;;65.40;26.82;;;6.70;80.60;;;;;;1924789;74;21100;-48
2022/02/15 16:10:44;;;;;;;61.98;23.12;;;6.60;80.80;;;;;;1924611;74;21043;-48
2022/02/15 16:13:13;;;;;;;61.92;25.40;;;6.60;80.70;;;;;;1924648;74;20998;-48
2022/02/15 16:15:43;;;;;;;70.62;23.38;;;6.50;80.90;;;;;;1924774;74;21092;-48
2022/02/15 16:18:12;;;;;;;46.40;21.05;;;6.50;81.10;;;;;;1924688;74;20991;-49
2022/02/15 16:20:41;;;;;;;58.38;19.95;;;6.50;81.40;;;;;;1924786;74;21062;-48
2022/02/15 16:23:11;;;;;;;53.15;19.48;;;6.40;81.40;;;;;;1924707;74;21073;-49
2022/02/15 16:25:41;;;;;;;51.70;22.75;;;6.40;81.60;;;;;;1924682;74;21014;-49
2022/02/15 16:28:10;;;;;;;46.28;19.25;;;6.40;81.90;;;;;;1924798;74;21076;-48
2022/02/15 16:30:42;;;;;;;46.50;18.65;;;6.30;82.00;;;;;;1924747;74;21030;-48
2022/02/15 16:33:12;;;;;;;42.03;18.82;;;6.30;82.10;;;;;;1923950;74;21634;-48
2022/02/15 16:35:42;;;;;;;31.40;15.60;;;6.30;82.20;;;;;;1924693;74;21132;-48
2022/02/15 16:38:11;;;;;;;33.42;15.75;;;6.30;82.30;;;;;;1924746;74;21062;-48
2022/02/15 16:40:41;;;;;;;53.05;19.87;;;6.30;82.50;;;;;;1924728;74;21034;-48
2022/02/15 16:43:10;;;;;;;43.40;19.60;;;6.30;82.70;;;;;;1924637;74;21112;-48
2022/02/15 16:45:39;;;;;;;55.25;18.40;;;6.40;82.70;;;;;;1925009;74;21096;-48
2022/02/15 16:48:09;;;;;;;37.65;17.42;;;6.40;82.70;;;;;;1924897;74;21043;-48
2022/02/15 16:50:39;;;;;;;65.32;21.00;;;6.40;82.60;;;;;;1924748;74;21092;-49
2022/02/15 16:53:08;;;;;;;54.60;19.32;;;6.40;82.70;;;;;;1924674;74;21018;-48
2022/02/15 16:55:38;;;;;;;55.03;21.45;;;6.40;82.80;;;;;;1924952;74;20990;-48
2022/02/15 16:58:07;;;;;;;58.15;23.62;;;6.40;82.90;;;;;;1924803;74;21080;-49
2022/02/15 17:00:37;;;;;;;76.80;21.93;;;6.40;82.90;;;;;;1919885;74;21129;-48
2022/02/15 17:03:07;;;;;;;38.17;17.35;;;6.30;82.70;;;;;;1905353;74;21031;-48
2022/02/15 17:05:39;;;;;;;39.53;17.32;;;6.30;82.70;;;;;;1905355;75;21043;-48
2022/02/15 17:08:08;;;;;;;39.92;18.55;;;6.30;82.90;;;;;;1905331;75;21020;-47
2022/02/15 17:10:38;;;;;;;41.55;18.20;;;6.30;83.10;;;;;;1905462;75;21023;-48
2022/02/15 17:13:07;;;;;;;44.67;17.57;;;6.30;83.20;;;;;;1905371;75;21015;-48
2022/02/15 17:15:36;;;;;;;44.10;18.30;;;6.20;83.20;;;;;;1905464;75;21051;-48
2022/02/15 17:18:06;;;;;;;45.25;20.05;;;6.20;83.30;;;;;;1905452;74;21097;-48
2022/02/15 17:20:36;;;;;;;70.03;21.95;;;6.20;83.40;;;;;;1905367;75;21077;-48
2022/02/15 17:23:06;;;;;;;52.20;18.12;;;6.20;83.50;;;;;;1905399;75;20999;-48
2022/02/15 17:25:35;;;;;;;61.90;21.57;;;6.20;83.70;;;;;;1905444;75;21023;-49
2022/02/15 17:28:05;;;;;;;43.52;19.40;;;6.10;83.80;;;;;;1905350;75;21019;-48
2022/02/15 17:30:34;;;;;;;39.83;21.97;;;6.10;83.80;;;;;;1905309;74;21085;-48
2022/02/15 17:33:05;;;;;;;40.58;20.80;;;6.10;83.90;;;;;;1905282;74;21050;-49
2022/02/15 17:35:35;;;;;;;49.03;22.30;;;6.00;84.00;;;;;;1905281;75;21085;-48
2022/02/15 17:38:04;;;;;;;52.33;24.50;;;6.00;84.00;;;;;;1905308;75;21019;-48
2022/02/15 17:40:33;;;;;;;62.13;24.65;;;6.00;84.10;;;;;;1905287;75;21047;-48
2022/02/15 17:43:05;;;;;;;48.52;21.62;;;5.90;84.20;;;;;;1905490;74;21035;-47
2022/02/15 17:45:34;;;;;;;53.02;22.58;;;5.90;84.30;;;;;;1905141;74;21059;-48
2022/02/15 17:48:03;;;;;;;56.48;22.70;;;5.90;84.40;;;;;;1905353;75;21473;-48
2022/02/15 17:50:36;;;;;;;42.43;19.70;;;5.90;84.50;;;;;;1905226;75;21019;-48
2022/02/15 17:53:06;;;;;;;42.53;17.65;;;5.90;84.60;;;;;;1905259;74;21007;-48
2022/02/15 17:55:36;;;;;;;41.73;19.82;;;5.80;84.70;;;;;;1905164;74;21027;-48
2022/02/15 17:58:06;;;;;;;37.95;17.70;;;5.80;84.80;;;;;;1905225;74;21023;-48
2022/02/15 18:00:36;;;;;;;36.45;19.77;;;5.80;84.90;;;;;;1905229;74;20999;-47
2022/02/15 18:03:06;;;;;;;37.35;18.30;;;5.80;85.00;;;;;;1905270;75;21115;-48
2022/02/15 18:05:36;;;;;;;37.53;17.15;;;5.80;85.00;;;;;;1905360;75;21070;-48
2022/02/15 18:08:07;;;;;;;39.67;19.48;;;5.80;85.20;;;;;;1905223;74;21020;-48
2022/02/15 18:10:37;;;;;;;46.92;19.82;;;5.70;85.20;;;;;;1905196;75;21168;-48
2022/02/15 18:13:09;;;;;;;68.92;25.43;;;5.70;85.30;;;;;;1905246;75;21020;-50
2022/02/15 18:15:38;;;;;;;95.40;32.05;;;5.70;85.40;;;;;;1905343;75;21561;-48
2022/02/15 18:18:09;;;;;;;72.97;27.65;;;5.70;85.40;;;;;;1905309;75;21093;-48
2022/02/15 18:20:40;;;;;;;75.72;26.20;;;5.60;85.50;;;;;;1905209;75;21043;-49
2022/02/15 18:23:10;;;;;;;50.10;24.43;;;5.60;85.40;;;;;;1905478;75;20999;-48
2022/02/15 18:25:39;;;;;;;63.65;26.60;;;5.60;85.60;;;;;;1905312;75;20999;-48
2022/02/15 18:28:09;;;;;;;50.58;22.32;;;5.60;85.50;;;;;;1905278;74;21438;-48
2022/02/15 18:30:38;;;;;;;43.95;20.65;;;5.50;85.50;;;;;;1905321;74;20999;-51
2022/02/15 18:33:09;;;;;;;37.35;21.27;;;5.50;85.70;;;;;;1905249;75;21047;-47
2022/02/15 18:35:38;;;;;;;33.88;18.65;;;5.50;85.80;;;;;;1905347;74;21020;-48
2022/02/15 18:38:08;;;;;;;33.48;18.95;;;5.50;85.70;;;;;;1905373;74;21027;-49
2022/02/15 18:40:37;;;;;;;43.80;20.15;;;5.50;85.80;;;;;;1905336;75;21094;-48
2022/02/15 18:43:08;;;;;;;41.18;19.75;;;5.40;85.70;;;;;;1905258;75;21023;-49
2022/02/15 18:45:38;;;;;;;32.58;19.75;;;5.40;85.80;;;;;;1905225;74;21023;-48
2022/02/15 18:48:07;;;;;;;41.18;19.77;;;5.30;85.80;;;;;;1905217;75;21082;-51
2022/02/15 18:50:36;;;;;;;37.80;20.57;;;5.30;86.00;;;;;;1905319;75;20999;-48
2022/02/15 18:53:06;;;;;;;38.53;20.20;;;5.30;85.80;;;;;;1905318;75;21039;-48
2022/02/15 18:55:35;;;;;;;46.05;21.10;;;5.20;85.90;;;;;;1905324;75;21003;-48
2022/02/15 18:58:05;;;;;;;56.85;21.52;;;5.20;86.00;;;;;;1905311;75;21081;-47
2022/02/15 19:00:36;;;;;;;35.08;22.42;;;5.20;86.10;;;;;;1905449;75;21101;-49
2022/02/15 19:03:06;;;;;;;30.97;20.57;;;5.20;86.10;;;;;;1905387;75;21105;-48
2022/02/15 19:05:35;;;;;;;37.08;21.17;;;5.10;86.50;;;;;;1905317;75;21051;-48
2022/02/15 19:08:04;;;;;;;35.58;21.82;;;5.10;86.20;;;;;;1905430;74;21019;-48
2022/02/15 19:10:34;;;;;;;40.78;22.70;;;5.10;86.20;;;;;;1905358;75;21122;-48
2022/02/15 19:13:04;;;;;;;48.25;21.90;;;5.10;86.20;;;;;;1905254;75;21023;-48
2022/02/15 19:15:33;;;;;;;36.83;21.27;;;5.10;86.30;;;;;;1905208;75;21062;-47
2022/02/15 19:18:02;;;;;;;44.70;23.80;;;5.20;86.40;;;;;;1905233;75;21102;-48
2022/02/15 19:20:33;;;;;;;38.75;21.15;;;5.10;86.30;;;;;;1905226;75;21042;-48
2022/02/15 19:23:03;;;;;;;36.80;24.10;;;5.10;86.40;;;;;;1905242;75;21090;-47
2022/02/15 19:25:33;;;;;;;38.23;19.02;;;5.10;86.30;;;;;;1905210;75;21082;-49
2022/02/15 19:28:02;;;;;;;41.18;24.15;;;5.10;86.30;;;;;;1905236;75;21132;-47
2022/02/15 19:30:32;;;;;;;36.73;23.35;;;5.10;86.50;;;;;;1905295;75;21097;-48
2022/02/15 19:33:01;;;;;;;34.78;22.00;;;5.00;86.50;;;;;;1905212;75;21082;-48
2022/02/15 19:35:31;;;;;;;40.65;22.87;;;5.00;86.50;;;;;;1905165;74;21023;-48
2022/02/15 19:38:01;;;;;;;35.25;21.05;;;5.00;86.50;;;;;;1905211;75;21012;-48
2022/02/15 19:40:30;;;;;;;48.55;21.40;;;5.00;86.60;;;;;;1905324;75;21085;-48
2022/02/15 19:43:00;;;;;;;43.10;23.12;;;5.00;86.70;;;;;;1905318;75;21031;-48
2022/02/15 19:45:29;;;;;;;36.68;22.02;;;5.00;86.90;;;;;;1905248;74;21035;-48
2022/02/15 19:47:58;;;;;;;44.23;24.35;;;5.00;86.70;;;;;;1905166;75;21008;-48
2022/02/15 19:50:28;;;;;;;42.17;22.27;;;5.00;86.70;;;;;;1905194;74;21466;-49
2022/02/15 19:52:57;;;;;;;37.08;23.35;;;5.00;86.70;;;;;;1905268;75;21023;-48
2022/02/15 19:55:26;;;;;;;36.95;23.15;;;4.90;86.70;;;;;;1905284;74;20999;-48
2022/02/15 19:57:58;;;;;;;41.18;23.35;;;4.90;86.70;;;;;;1905309;75;21044;-48
2022/02/15 20:00:27;;;;;;;35.92;22.20;;;4.90;86.90;;;;;;1905149;75;21067;-48
2022/02/15 20:02:57;;;;;;;32.50;19.85;;;4.90;86.80;;;;;;1914676;74;21051;-47
2022/02/15 20:05:26;;;;;;;39.23;23.85;;;4.90;86.60;;;;;;1924644;74;21019;-48
2022/02/15 20:07:55;;;;;;;37.00;21.73;;;4.80;86.90;;;;;;1924700;74;21022;-48
2022/02/15 20:10:25;;;;;;;35.08;21.37;;;4.80;87.00;;;;;;1924496;74;21084;-49
2022/02/15 20:12:56;;;;;;;35.17;21.00;;;4.80;87.10;;;;;;1924416;74;21042;-47
2022/02/15 20:15:26;;;;;;;38.85;23.62;;;4.80;87.20;;;;;;1924810;74;20994;-47
2022/02/15 20:17:55;;;;;;;46.30;23.95;;;4.80;87.20;;;;;;1924756;74;21023;-49
2022/02/15 20:20:25;;;;;;;33.63;20.30;;;4.90;87.20;;;;;;1924954;74;21105;-48
2022/02/15 20:22:54;;;;;;;39.08;21.55;;;4.80;87.10;;;;;;1924910;74;20998;-48
2022/02/15 20:25:24;;;;;;;37.53;20.97;;;4.80;87.20;;;;;;1924896;74;21097;-48
2022/02/15 20:27:59;;;;;;;37.58;20.85;;;4.80;87.20;;;;;;1924967;74;21080;-49
2022/02/15 20:30:28;;;;;;;32.15;19.57;;;4.70;87.30;;;;;;1924919;74;21117;-48
2022/02/15 20:32:57;;;;;;;40.35;19.65;;;4.70;87.20;;;;;;1924874;74;20999;-48
2022/02/15 20:35:27;;;;;;;35.63;21.62;;;4.70;87.20;;;;;;1924894;74;21097;-48
2022/02/15 20:37:57;;;;;;;38.88;21.35;;;4.70;87.30;;;;;;1924896;74;21019;-47
2022/02/15 20:40:28;;;;;;;36.30;20.62;;;4.70;87.30;;;;;;1924525;74;21086;-48
2022/02/15 20:42:57;;;;;;;32.53;19.40;;;4.70;87.20;;;;;;1924987;74;21042;-48
2022/02/15 20:45:27;;;;;;;29.77;17.87;;;4.70;87.40;;;;;;1924949;74;21090;-48
2022/02/15 20:47:56;;;;;;;34.50;20.97;;;4.70;87.40;;;;;;1924971;74;21031;-48
2022/02/15 20:50:25;;;;;;;34.38;17.30;;;4.70;87.20;;;;;;1924985;74;21076;-48
2022/02/15 20:52:55;;;;;;;39.78;18.70;;;4.70;87.50;;;;;;1924862;74;21076;-48
2022/02/15 20:55:24;;;;;;;32.53;19.25;;;4.60;87.50;;;;;;1924812;74;21030;-48
2022/02/15 20:57:54;;;;;;;32.13;17.98;;;4.60;87.60;;;;;;1924990;74;21050;-48
2022/02/15 21:00:23;;;;;;;34.58;21.00;;;4.60;87.70;;;;;;1924856;74;21069;-47
2022/02/15 21:02:53;;;;;;;34.23;20.05;;;4.70;87.70;;;;;;1920751;74;21039;-48
2022/02/15 21:05:22;;;;;;;33.15;18.32;;;4.60;87.70;;;;;;1905320;75;21109;-48
2022/02/15 21:07:52;;;;;;;32.23;20.32;;;4.70;87.70;;;;;;1905405;74;21020;-48
2022/02/15 21:10:21;;;;;;;28.77;16.20;;;4.70;87.70;;;;;;1905569;75;21004;-48
2022/02/15 21:12:50;;;;;;;35.23;17.98;;;4.60;87.50;;;;;;1905303;74;21023;-48
2022/02/15 21:15:20;;;;;;;36.75;19.10;;;4.60;87.70;;;;;;1905523;75;21085;-48
2022/02/15 21:17:49;;;;;;;27.85;17.25;;;4.70;87.90;;;;;;1905332;75;21008;-48
2022/02/15 21:20:18;;;;;;;20.20;12.93;;;4.60;87.80;;;;;;1905508;75;21087;-49
2022/02/15 21:22:52;;;;;;;25.48;17.55;;;4.70;87.90;;;;;;1905358;74;21000;-48
2022/02/15 21:25:18;;;;;;;26.50;15.85;;;4.60;88.00;;;;;;1905348;74;21090;-49
2022/02/15 21:27:48;;;;;;;22.37;15.80;;;4.60;88.00;;;;;;1905408;75;21023;-48
2022/02/15 21:30:18;;;;;;;24.43;14.43;;;4.70;88.00;;;;;;1905415;75;21011;-48
2022/02/15 21:32:47;;;;;;;25.20;15.63;;;4.70;87.90;;;;;;1905329;74;21089;-47
2022/02/15 21:35:18;;;;;;;27.62;15.05;;;4.60;87.90;;;;;;1905356;75;21019;-48
2022/02/15 21:37:48;;;;;;;34.48;16.50;;;4.70;88.00;;;;;;1905511;75;21011;-48
2022/02/15 21:40:18;;;;;;;25.75;15.10;;;4.70;88.10;;;;;;1905509;75;21012;-48
2022/02/15 21:42:47;;;;;;;22.13;13.72;;;4.70;88.20;;;;;;1905499;74;21019;-49
2022/02/15 21:45:17;;;;;;;21.07;15.65;;;4.70;88.10;;;;;;1905609;75;21081;-48
2022/02/15 21:47:46;;;;;;;26.12;14.33;;;4.70;88.10;;;;;;1905488;74;20995;-48
2022/02/15 21:50:16;;;;;;;30.23;17.02;;;4.80;88.20;;;;;;1905573;75;21093;-48
2022/02/15 21:52:45;;;;;;;30.40;16.62;;;4.70;88.00;;;;;;1905311;75;21097;-48
2022/02/15 21:55:14;;;;;;;26.97;16.62;;;4.70;88.10;;;;;;1905403;75;21004;-48
2022/02/15 21:57:44;;;;;;;27.90;16.75;;;4.70;88.30;;;;;;1905557;75;21109;-47
2022/02/15 22:00:14;;;;;;;27.93;16.55;;;4.70;88.30;;;;;;1905459;75;21062;-47
2022/02/15 22:02:43;;;;;;;30.77;16.77;;;4.70;88.30;;;;;;1905376;75;21098;-48
2022/02/15 22:05:18;;;;;;;31.42;15.40;;;4.70;88.30;;;;;;1923183;74;21030;-47
2022/02/15 22:07:47;;;;;;;31.27;16.95;;;4.70;88.40;;;;;;1924992;74;21500;-47
2022/02/15 22:10:17;;;;;;;26.62;14.45;;;4.80;88.50;;;;;;1924748;74;21085;-47
2022/02/15 22:12:46;;;;;;;24.55;14.90;;;4.80;88.70;;;;;;1924695;74;21089;-47
2022/02/15 22:15:16;;;;;;;27.35;14.55;;;4.80;88.60;;;;;;1924845;74;21022;-47
2022/02/15 22:17:45;;;;;;;24.77;15.43;;;4.80;88.60;;;;;;1924813;74;21026;-47
2022/02/15 22:20:15;;;;;;;30.10;16.80;;;4.80;88.70;;;;;;1924697;74;21019;-47
2022/02/15 22:22:45;;;;;;;22.95;14.20;;;4.80;88.50;;;;;;1924736;74;21015;-46
2022/02/15 22:25:15;;;;;;;24.90;14.68;;;4.80;88.40;;;;;;1924887;74;21023;-48
2022/02/15 22:27:45;;;;;;;31.62;17.17;;;4.70;88.20;;;;;;1924873;74;21023;-47
2022/02/15 22:30:15;;;;;;;30.52;15.55;;;4.70;88.40;;;;;;1924809;74;21022;-47
2022/02/15 22:32:44;;;;;;;31.15;17.30;;;4.80;88.40;;;;;;1924906;74;20998;-48
2022/02/15 22:35:14;;;;;;;29.32;16.35;;;4.80;88.40;;;;;;1924895;74;21116;-47
2022/02/15 22:37:43;;;;;;;28.10;15.88;;;4.70;87.90;;;;;;1924840;74;21054;-46
2022/02/15 22:40:15;;;;;;;29.67;16.05;;;4.70;88.20;;;;;;1924815;74;21089;-46
2022/02/15 22:42:45;;;;;;;24.27;14.58;;;4.60;88.20;;;;;;1924834;74;21023;-47
2022/02/15 22:45:15;;;;;;;29.57;16.42;;;4.60;88.30;;;;;;1924895;74;21030;-47
2022/02/15 22:47:45;;;;;;;24.77;15.03;;;4.70;88.50;;;;;;1924877;74;21096;-46
2022/02/15 22:50:15;;;;;;;31.00;17.25;;;4.70;88.40;;;;;;1924956;74;21100;-47
2022/02/15 22:52:45;;;;;;;24.25;14.60;;;4.70;88.50;;;;;;1924903;74;21043;-47
2022/02/15 22:55:14;;;;;;;29.63;16.10;;;4.70;88.50;;;;;;1924776;74;21017;-46
2022/02/15 22:57:43;;;;;;;27.20;16.57;;;4.80;88.60;;;;;;1924810;74;21066;-46
2022/02/15 23:00:18;;;;;;;27.65;17.25;;;4.80;88.60;;;;;;1924934;74;21066;-46
2022/02/15 23:02:48;;;;;;;24.75;17.02;;;4.80;88.40;;;;;;1923135;74;21046;-47
2022/02/15 23:19:15;;;;;;;27.52;17.10;;;5.00;88.70;;;;;;1924871;74;21042;-46
2022/02/15 23:21:45;;;;;;;28.05;16.42;;;5.00;88.70;;;;;;1924909;74;21031;-47
2022/02/15 23:24:14;;;;;;;31.68;17.15;;;5.00;88.60;;;;;;1924974;74;21092;-45
2022/02/15 23:26:44;;;;;;;30.55;17.20;;;5.00;88.70;;;;;;1924836;74;21152;-46
2022/02/15 23:29:13;;;;;;;35.68;16.50;;;5.00;88.70;;;;;;1924694;74;21050;-46
2022/02/15 23:31:42;;;;;;;33.45;19.37;;;5.00;88.70;;;;;;1924785;74;21084;-46
2022/02/15 23:34:12;;;;;;;28.95;16.95;;;5.00;88.80;;;;;;1924815;74;21108;-47
2022/02/15 23:36:43;;;;;;;23.42;15.43;;;5.00;88.70;;;;;;1924814;74;20998;-47
2022/02/15 23:39:12;;;;;;;31.60;17.87;;;5.10;88.90;;;;;;1924757;74;21186;-46
2022/02/15 23:41:42;;;;;;;30.72;18.80;;;5.10;88.90;;;;;;1924654;74;21023;-46
2022/02/15 23:44:11;;;;;;;24.77;16.75;;;5.10;88.90;;;;;;1924663;74;21023;-47
2022/02/15 23:46:41;;;;;;;27.85;16.93;;;5.10;88.80;;;;;;1924792;74;21019;-47
2022/02/15 23:49:10;;;;;;;27.60;16.82;;;5.10;88.80;;;;;;1924700;74;21022;-47
2022/02/15 23:51:40;;;;;;;30.65;17.62;;;5.10;88.90;;;;;;1924735;74;21082;-46
2022/02/15 23:54:09;;;;;;;30.45;17.62;;;5.10;88.90;;;;;;1924705;74;21026;-46
2022/02/15 23:56:39;;;;;;;24.43;16.25;;;5.10;89.00;;;;;;1924660;74;21003;-46
2022/02/15 23:59:09;;;;;;;26.60;17.27;;;5.10;89.00;;;;;;1924753;74;21096;-47
